RYR351 EKVG-BIKF
Flight info
| Callsign | RYR351 |
|---|---|
| Flight time | 1h 19m |
| Altitude | 38000 |
| Route | MY DCT ING DCT NASBU NASBU5N |
| Aircraft | B738/M-SDE2E3FGHIRWXY/LB1 |
Departure
| Time | 2026-05-07 13:34 |
|---|---|
| Airport | Vágar Airport (EKVG) |
Arrival
| Time | 2026-05-07 14:53 |
|---|---|
| Airport | Keflavik International Airport (BIKF) |
| Time | Latitude | Longitude | Altitude | Speed | Heading |
|---|---|---|---|---|---|
| 2026-05-07 12:58 | 62.06723 | -7.28097 | 293 ft | 0 kts | 73° |
| 2026-05-07 13:21 | 62.06722 | -7.28103 | 293 ft | 3 kts | 72° |
| 2026-05-07 13:21 | 62.06712 | -7.28155 | 298 ft | 4 kts | 63° |
| 2026-05-07 13:22 | 62.06707 | -7.28192 | 298 ft | 2 kts | 123° |
| 2026-05-07 13:22 | 62.06707 | -7.28194 | 298 ft | 1 kts | 123° |
| 2026-05-07 13:25 | 62.06704 | -7.28183 | 293 ft | 2 kts | 122° |
| 2026-05-07 13:25 | 62.06692 | -7.28143 | 297 ft | 4 kts | 120° |
| 2026-05-07 13:26 | 62.06669 | -7.28094 | 292 ft | 6 kts | 147° |
| 2026-05-07 13:26 | 62.06628 | -7.28062 | 294 ft | 7 kts | 169° |
| 2026-05-07 13:26 | 62.06578 | -7.28067 | 293 ft | 8 kts | 187° |
| 2026-05-07 13:26 | 62.06553 | -7.28078 | 291 ft | 0 kts | 194° |
| 2026-05-07 13:27 | 62.06544 | -7.28082 | 291 ft | 2 kts | 192° |
| 2026-05-07 13:27 | 62.06522 | -7.28095 | 294 ft | 4 kts | 195° |
| 2026-05-07 13:27 | 62.06489 | -7.28113 | 294 ft | 5 kts | 193° |
| 2026-05-07 13:27 | 62.06463 | -7.28136 | 294 ft | 0 kts | 204° |
| 2026-05-07 13:28 | 62.06463 | -7.28135 | 294 ft | 0 kts | 202° |
| 2026-05-07 13:28 | 62.06460 | -7.28139 | 294 ft | 3 kts | 204° |
| 2026-05-07 13:28 | 62.06451 | -7.28145 | 295 ft | 0 kts | 197° |
| 2026-05-07 13:29 | 62.06450 | -7.28146 | 294 ft | 2 kts | 197° |
| 2026-05-07 13:29 | 62.06425 | -7.28170 | 294 ft | 7 kts | 214° |
| 2026-05-07 13:29 | 62.06401 | -7.28218 | 293 ft | 0 kts | 230° |
| 2026-05-07 13:32 | 62.06399 | -7.28226 | 293 ft | 1 kts | 239° |
| 2026-05-07 13:32 | 62.06402 | -7.28271 | 293 ft | 5 kts | 295° |
| 2026-05-07 13:32 | 62.06448 | -7.28353 | 296 ft | 14 kts | 327° |
| 2026-05-07 13:32 | 62.06543 | -7.28533 | 295 ft | 24 kts | 310° |
| 2026-05-07 13:33 | 62.06648 | -7.28927 | 301 ft | 38 kts | 301° |
| 2026-05-07 13:33 | 62.06710 | -7.29141 | 302 ft | 2 kts | 269° |
| 2026-05-07 13:33 | 62.06678 | -7.29162 | 300 ft | 8 kts | 148° |
| 2026-05-07 13:33 | 62.06657 | -7.28979 | 301 ft | 31 kts | 104° |
| 2026-05-07 13:34 | 62.06422 | -7.27907 | 309 ft | 121 kts | 112° |
| 2026-05-07 13:34 | 62.05496 | -7.24479 | 2450 ft | 140 kts | 107° |
| 2026-05-07 13:34 | 62.05073 | -7.22613 | 3736 ft | 137 kts | 112° |
| 2026-05-07 13:35 | 62.04691 | -7.20807 | 4918 ft | 135 kts | 113° |
| 2026-05-07 13:35 | 62.04386 | -7.18773 | 5692 ft | 158 kts | 102° |
| 2026-05-07 13:35 | 62.04254 | -7.16341 | 6399 ft | 176 kts | 99° |
| 2026-05-07 13:35 | 62.04176 | -7.13648 | 7200 ft | 188 kts | 99° |
| 2026-05-07 13:36 | 62.04072 | -7.10708 | 7715 ft | 219 kts | 101° |
| 2026-05-07 13:36 | 62.03842 | -7.06966 | 7116 ft | 294 kts | 107° |
| 2026-05-07 13:36 | 62.02870 | -7.02619 | 6781 ft | 341 kts | 134° |
| 2026-05-07 13:36 | 62.01121 | -6.99408 | 8379 ft | 323 kts | 145° |
| 2026-05-07 13:37 | 61.99247 | -6.96968 | 9806 ft | 310 kts | 157° |
| 2026-05-07 13:37 | 61.97205 | -6.95894 | 11071 ft | 298 kts | 177° |
| 2026-05-07 13:37 | 61.95181 | -6.96189 | 12440 ft | 287 kts | 186° |
| 2026-05-07 13:37 | 61.93268 | -6.96929 | 13746 ft | 278 kts | 194° |
| 2026-05-07 13:38 | 61.91493 | -6.98600 | 14746 ft | 280 kts | 205° |
| 2026-05-07 13:38 | 61.89852 | -7.00921 | 15547 ft | 288 kts | 215° |
| 2026-05-07 13:38 | 61.88454 | -7.04070 | 16323 ft | 298 kts | 227° |
| 2026-05-07 13:38 | 61.87346 | -7.07861 | 17091 ft | 309 kts | 239° |
| 2026-05-07 13:39 | 61.86631 | -7.12245 | 17886 ft | 321 kts | 252° |
| 2026-05-07 13:39 | 61.86402 | -7.16988 | 18596 ft | 333 kts | 265° |
| 2026-05-07 13:39 | 61.86709 | -7.21836 | 19533 ft | 334 kts | 279° |
| 2026-05-07 13:39 | 61.87559 | -7.26461 | 20426 ft | 340 kts | 292° |
| 2026-05-07 13:40 | 61.88948 | -7.30629 | 21030 ft | 354 kts | 307° |
| 2026-05-07 13:40 | 61.90856 | -7.34090 | 21659 ft | 367 kts | 321° |
| 2026-05-07 13:40 | 61.93108 | -7.36835 | 22055 ft | 382 kts | 325° |
| 2026-05-07 13:40 | 61.95473 | -7.39707 | 22176 ft | 400 kts | 324° |
| 2026-05-07 13:41 | 61.97918 | -7.42736 | 22337 ft | 416 kts | 324° |
| 2026-05-07 13:41 | 62.00456 | -7.45906 | 22683 ft | 426 kts | 324° |
| 2026-05-07 13:41 | 62.03021 | -7.49119 | 23265 ft | 429 kts | 324° |
| 2026-05-07 13:41 | 62.05594 | -7.52352 | 23816 ft | 430 kts | 324° |
| 2026-05-07 13:42 | 62.08177 | -7.55607 | 24354 ft | 432 kts | 323° |
| 2026-05-07 13:42 | 62.10581 | -7.59400 | 24784 ft | 425 kts | 306° |
| 2026-05-07 13:42 | 62.12162 | -7.64546 | 25286 ft | 409 kts | 287° |
| 2026-05-07 13:42 | 62.13346 | -7.70060 | 25848 ft | 410 kts | 288° |
| 2026-05-07 13:43 | 62.14581 | -7.75569 | 26303 ft | 414 kts | 288° |
| 2026-05-07 13:43 | 62.15850 | -7.81151 | 26745 ft | 417 kts | 288° |
| 2026-05-07 13:43 | 62.17123 | -7.86719 | 27189 ft | 419 kts | 288° |
| 2026-05-07 13:43 | 62.18412 | -7.92350 | 27675 ft | 421 kts | 288° |
| 2026-05-07 13:44 | 62.19703 | -7.97998 | 28122 ft | 423 kts | 288° |
| 2026-05-07 13:44 | 62.20982 | -8.03611 | 28540 ft | 426 kts | 288° |
| 2026-05-07 13:44 | 62.22303 | -8.09421 | 28965 ft | 428 kts | 288° |
| 2026-05-07 13:44 | 62.23589 | -8.15097 | 29370 ft | 430 kts | 288° |
| 2026-05-07 13:45 | 62.24896 | -8.20881 | 29757 ft | 432 kts | 288° |
| 2026-05-07 13:45 | 62.26207 | -8.26704 | 30083 ft | 434 kts | 288° |
| 2026-05-07 13:45 | 62.27524 | -8.32565 | 30380 ft | 437 kts | 288° |
| 2026-05-07 13:45 | 62.28842 | -8.38449 | 30682 ft | 440 kts | 288° |
| 2026-05-07 13:46 | 62.30170 | -8.44402 | 30922 ft | 443 kts | 288° |
| 2026-05-07 13:46 | 62.31506 | -8.50397 | 31225 ft | 445 kts | 289° |
| 2026-05-07 13:46 | 62.32839 | -8.56392 | 31588 ft | 444 kts | 289° |
| 2026-05-07 13:46 | 62.34166 | -8.62372 | 32039 ft | 442 kts | 289° |
| 2026-05-07 13:47 | 62.35485 | -8.68334 | 32504 ft | 439 kts | 289° |
| 2026-05-07 13:47 | 62.36795 | -8.74275 | 32932 ft | 437 kts | 289° |
| 2026-05-07 13:47 | 62.38092 | -8.80172 | 33437 ft | 435 kts | 289° |
| 2026-05-07 13:47 | 62.39366 | -8.85985 | 33855 ft | 433 kts | 289° |
| 2026-05-07 13:48 | 62.40648 | -8.91855 | 34207 ft | 431 kts | 289° |
| 2026-05-07 13:48 | 62.41922 | -8.97716 | 34326 ft | 435 kts | 291° |
| 2026-05-07 13:48 | 62.43214 | -9.03683 | 34456 ft | 439 kts | 291° |
| 2026-05-07 13:48 | 62.44506 | -9.09654 | 34776 ft | 436 kts | 290° |
| 2026-05-07 13:49 | 62.45783 | -9.15555 | 35267 ft | 431 kts | 289° |
| 2026-05-07 13:49 | 62.47045 | -9.21407 | 35539 ft | 432 kts | 290° |
| 2026-05-07 13:49 | 62.48305 | -9.27284 | 35604 ft | 436 kts | 290° |
| 2026-05-07 13:50 | 62.50900 | -9.39441 | 35746 ft | 446 kts | 291° |
| 2026-05-07 13:50 | 62.52197 | -9.45535 | 36050 ft | 445 kts | 291° |
| 2026-05-07 13:50 | 62.53473 | -9.51537 | 36375 ft | 442 kts | 290° |
| 2026-05-07 13:50 | 62.54746 | -9.57538 | 36890 ft | 436 kts | 291° |
| 2026-05-07 13:51 | 62.56016 | -9.63551 | 37002 ft | 440 kts | 290° |
| 2026-05-07 13:51 | 62.58568 | -9.75713 | 37254 ft | 446 kts | 291° |
| 2026-05-07 13:51 | 62.59851 | -9.81850 | 37448 ft | 447 kts | 292° |
| 2026-05-07 13:52 | 62.61127 | -9.87961 | 37941 ft | 441 kts | 290° |
| 2026-05-07 13:52 | 62.62382 | -9.93982 | 38402 ft | 436 kts | 291° |
| 2026-05-07 13:52 | 62.63633 | -10.00009 | 38480 ft | 439 kts | 291° |
| 2026-05-07 13:53 | 62.66156 | -10.12242 | 38680 ft | 443 kts | 291° |
| 2026-05-07 13:53 | 62.67405 | -10.18317 | 38981 ft | 440 kts | 292° |
| 2026-05-07 13:53 | 62.68658 | -10.24433 | 38989 ft | 444 kts | 292° |
| 2026-05-07 13:53 | 62.69916 | -10.30593 | 39116 ft | 444 kts | 291° |
| 2026-05-07 13:54 | 62.71165 | -10.36720 | 39371 ft | 441 kts | 291° |
| 2026-05-07 13:54 | 62.72409 | -10.42844 | 39478 ft | 443 kts | 292° |
| 2026-05-07 13:54 | 62.73658 | -10.49015 | 39501 ft | 447 kts | 292° |
| 2026-05-07 13:55 | 62.76171 | -10.61486 | 39716 ft | 449 kts | 292° |
| 2026-05-07 13:55 | 62.77406 | -10.67643 | 39868 ft | 449 kts | 292° |
| 2026-05-07 13:55 | 62.78665 | -10.73930 | 39880 ft | 445 kts | 291° |
| 2026-05-07 13:56 | 62.81111 | -10.86204 | 39887 ft | 441 kts | 292° |
| 2026-05-07 13:56 | 62.83553 | -10.98545 | 39916 ft | 442 kts | 291° |
| 2026-05-07 13:57 | 62.85983 | -11.10900 | 39921 ft | 442 kts | 291° |
| 2026-05-07 13:57 | 62.88408 | -11.23305 | 39917 ft | 443 kts | 291° |
| 2026-05-07 13:58 | 62.90831 | -11.35772 | 39920 ft | 444 kts | 291° |
| 2026-05-07 13:58 | 62.93243 | -11.48261 | 39942 ft | 445 kts | 291° |
| 2026-05-07 13:59 | 62.95651 | -11.60806 | 39957 ft | 446 kts | 291° |
| 2026-05-07 13:59 | 62.98054 | -11.73409 | 39951 ft | 447 kts | 291° |
| 2026-05-07 14:00 | 63.00434 | -11.85962 | 39972 ft | 448 kts | 291° |
| 2026-05-07 14:00 | 63.02826 | -11.98665 | 39982 ft | 448 kts | 291° |
| 2026-05-07 14:01 | 63.05209 | -12.11398 | 39984 ft | 448 kts | 290° |
| 2026-05-07 14:01 | 63.07575 | -12.24125 | 39961 ft | 448 kts | 291° |
| 2026-05-07 14:02 | 63.09927 | -12.36858 | 39999 ft | 448 kts | 291° |
| 2026-05-07 14:02 | 63.11875 | -12.47467 | 39996 ft | 447 kts | 291° |
| 2026-05-07 14:03 | 63.14206 | -12.60235 | 40000 ft | 447 kts | 291° |
| 2026-05-07 14:03 | 63.16506 | -12.72917 | 40002 ft | 447 kts | 290° |
| 2026-05-07 14:04 | 63.18811 | -12.85715 | 40011 ft | 447 kts | 290° |
| 2026-05-07 14:04 | 63.21106 | -12.98538 | 40026 ft | 447 kts | 290° |
| 2026-05-07 14:05 | 63.23383 | -13.11343 | 40007 ft | 447 kts | 290° |
| 2026-05-07 14:05 | 63.25650 | -13.24179 | 40021 ft | 447 kts | 290° |
| 2026-05-07 14:06 | 63.27905 | -13.37032 | 40027 ft | 447 kts | 290° |
| 2026-05-07 14:06 | 63.30145 | -13.49887 | 40026 ft | 447 kts | 290° |
| 2026-05-07 14:07 | 63.32377 | -13.62779 | 40049 ft | 447 kts | 290° |
| 2026-05-07 14:07 | 63.34603 | -13.75725 | 40038 ft | 447 kts | 290° |
| 2026-05-07 14:08 | 63.36818 | -13.88700 | 40068 ft | 447 kts | 290° |
| 2026-05-07 14:08 | 63.39023 | -14.01704 | 40055 ft | 448 kts | 290° |
| 2026-05-07 14:09 | 63.41201 | -14.14630 | 40063 ft | 448 kts | 290° |
| 2026-05-07 14:09 | 63.43383 | -14.27676 | 40067 ft | 449 kts | 290° |
| 2026-05-07 14:10 | 63.45556 | -14.40762 | 40072 ft | 449 kts | 290° |
| 2026-05-07 14:10 | 63.47717 | -14.53862 | 40084 ft | 449 kts | 290° |
| 2026-05-07 14:11 | 63.49874 | -14.67032 | 40104 ft | 450 kts | 290° |
| 2026-05-07 14:11 | 63.52006 | -14.80148 | 40084 ft | 450 kts | 290° |
| 2026-05-07 14:12 | 63.54135 | -14.93332 | 40085 ft | 450 kts | 290° |
| 2026-05-07 14:12 | 63.56253 | -15.06545 | 40089 ft | 450 kts | 289° |
| 2026-05-07 14:13 | 63.58361 | -15.19793 | 40101 ft | 451 kts | 290° |
| 2026-05-07 14:13 | 63.60458 | -15.33068 | 40100 ft | 451 kts | 290° |
| 2026-05-07 14:14 | 63.62546 | -15.46380 | 40105 ft | 452 kts | 289° |
| 2026-05-07 14:14 | 63.64625 | -15.59741 | 40111 ft | 452 kts | 289° |
| 2026-05-07 14:15 | 63.66680 | -15.73041 | 40108 ft | 452 kts | 290° |
| 2026-05-07 14:15 | 63.68735 | -15.86436 | 40103 ft | 453 kts | 289° |
| 2026-05-07 14:16 | 63.70790 | -15.99940 | 40127 ft | 453 kts | 289° |
| 2026-05-07 14:16 | 63.72825 | -16.13408 | 40128 ft | 454 kts | 289° |
| 2026-05-07 14:17 | 63.74836 | -16.26827 | 40127 ft | 454 kts | 289° |
| 2026-05-07 14:17 | 63.76850 | -16.40366 | 40119 ft | 454 kts | 289° |
| 2026-05-07 14:18 | 63.78849 | -16.53890 | 40149 ft | 454 kts | 289° |
| 2026-05-07 14:18 | 63.80646 | -16.67576 | 40000 ft | 458 kts | 280° |
| 2026-05-07 14:18 | 63.81063 | -16.74784 | 39518 ft | 463 kts | 277° |
| 2026-05-07 14:19 | 63.81384 | -16.82037 | 39007 ft | 462 kts | 276° |
| 2026-05-07 14:19 | 63.81689 | -16.89276 | 38363 ft | 463 kts | 276° |
| 2026-05-07 14:19 | 63.82002 | -16.96507 | 37838 ft | 460 kts | 276° |
| 2026-05-07 14:19 | 63.82324 | -17.03651 | 37436 ft | 454 kts | 276° |
| 2026-05-07 14:20 | 63.82653 | -17.10729 | 37026 ft | 449 kts | 277° |
| 2026-05-07 14:20 | 63.82984 | -17.17729 | 36636 ft | 444 kts | 277° |
| 2026-05-07 14:20 | 63.83312 | -17.24625 | 36256 ft | 439 kts | 277° |
| 2026-05-07 14:20 | 63.83632 | -17.31378 | 35879 ft | 435 kts | 277° |
| 2026-05-07 14:21 | 63.83956 | -17.38253 | 35480 ft | 431 kts | 277° |
| 2026-05-07 14:21 | 63.84266 | -17.44911 | 35090 ft | 428 kts | 277° |
| 2026-05-07 14:21 | 63.84573 | -17.51595 | 34712 ft | 425 kts | 277° |
| 2026-05-07 14:21 | 63.84876 | -17.58240 | 34314 ft | 422 kts | 278° |
| 2026-05-07 14:22 | 63.85174 | -17.64861 | 33905 ft | 419 kts | 278° |
| 2026-05-07 14:22 | 63.85464 | -17.71381 | 33478 ft | 416 kts | 277° |
| 2026-05-07 14:22 | 63.85749 | -17.77853 | 33077 ft | 413 kts | 277° |
| 2026-05-07 14:22 | 63.86029 | -17.84285 | 32694 ft | 409 kts | 277° |
| 2026-05-07 14:23 | 63.86304 | -17.90674 | 32346 ft | 404 kts | 277° |
| 2026-05-07 14:23 | 63.86575 | -17.97018 | 31966 ft | 401 kts | 277° |
| 2026-05-07 14:23 | 63.86840 | -18.03294 | 31594 ft | 398 kts | 277° |
| 2026-05-07 14:23 | 63.87100 | -18.09502 | 31243 ft | 394 kts | 277° |
| 2026-05-07 14:24 | 63.87355 | -18.15681 | 30888 ft | 391 kts | 277° |
| 2026-05-07 14:24 | 63.87604 | -18.21766 | 30533 ft | 388 kts | 277° |
| 2026-05-07 14:24 | 63.87851 | -18.27867 | 30165 ft | 385 kts | 278° |
| 2026-05-07 14:24 | 63.88090 | -18.33815 | 29768 ft | 381 kts | 278° |
| 2026-05-07 14:25 | 63.88325 | -18.39766 | 29425 ft | 376 kts | 278° |
| 2026-05-07 14:25 | 63.88556 | -18.45644 | 29052 ft | 372 kts | 278° |
| 2026-05-07 14:25 | 63.88782 | -18.51468 | 28690 ft | 368 kts | 278° |
| 2026-05-07 14:25 | 63.89003 | -18.57235 | 28336 ft | 364 kts | 278° |
| 2026-05-07 14:26 | 63.89219 | -18.62914 | 27984 ft | 360 kts | 278° |
| 2026-05-07 14:26 | 63.89432 | -18.68574 | 27627 ft | 357 kts | 278° |
| 2026-05-07 14:26 | 63.89641 | -18.74168 | 27298 ft | 354 kts | 278° |
| 2026-05-07 14:26 | 63.89845 | -18.79699 | 26970 ft | 351 kts | 278° |
| 2026-05-07 14:27 | 63.90046 | -18.85211 | 26609 ft | 349 kts | 278° |
| 2026-05-07 14:27 | 63.90244 | -18.90670 | 26260 ft | 346 kts | 278° |
| 2026-05-07 14:27 | 63.90437 | -18.96101 | 25928 ft | 344 kts | 278° |
| 2026-05-07 14:27 | 63.90626 | -19.01435 | 25603 ft | 341 kts | 278° |
| 2026-05-07 14:28 | 63.90813 | -19.06795 | 25267 ft | 340 kts | 278° |
| 2026-05-07 14:28 | 63.90998 | -19.12117 | 24934 ft | 338 kts | 278° |
| 2026-05-07 14:28 | 63.91180 | -19.17419 | 24611 ft | 336 kts | 278° |
| 2026-05-07 14:28 | 63.91359 | -19.22708 | 24281 ft | 334 kts | 278° |
| 2026-05-07 14:29 | 63.91535 | -19.27937 | 23955 ft | 332 kts | 278° |
| 2026-05-07 14:29 | 63.91708 | -19.33183 | 23610 ft | 331 kts | 278° |
| 2026-05-07 14:29 | 63.91878 | -19.38371 | 23234 ft | 329 kts | 278° |
| 2026-05-07 14:29 | 63.92045 | -19.43541 | 22917 ft | 326 kts | 278° |
| 2026-05-07 14:30 | 63.92208 | -19.48654 | 22590 ft | 323 kts | 278° |
| 2026-05-07 14:30 | 63.92369 | -19.53723 | 22281 ft | 321 kts | 278° |
| 2026-05-07 14:30 | 63.92527 | -19.58758 | 21970 ft | 318 kts | 278° |
| 2026-05-07 14:30 | 63.92681 | -19.63774 | 21626 ft | 316 kts | 278° |
| 2026-05-07 14:31 | 63.92834 | -19.68733 | 21336 ft | 314 kts | 278° |
| 2026-05-07 14:31 | 63.92985 | -19.73691 | 21007 ft | 314 kts | 277° |
| 2026-05-07 14:31 | 63.93133 | -19.78577 | 20693 ft | 316 kts | 277° |
| 2026-05-07 14:31 | 63.93280 | -19.83552 | 20374 ft | 315 kts | 277° |
| 2026-05-07 14:32 | 63.93426 | -19.88535 | 20050 ft | 314 kts | 277° |
| 2026-05-07 14:32 | 63.93567 | -19.93430 | 19728 ft | 312 kts | 277° |
| 2026-05-07 14:32 | 63.93708 | -19.98363 | 19428 ft | 311 kts | 278° |
| 2026-05-07 14:32 | 63.93846 | -20.03247 | 19123 ft | 310 kts | 278° |
| 2026-05-07 14:33 | 63.93983 | -20.08138 | 18820 ft | 309 kts | 277° |
| 2026-05-07 14:33 | 63.94117 | -20.12994 | 18501 ft | 308 kts | 277° |
| 2026-05-07 14:33 | 63.94251 | -20.17847 | 18140 ft | 307 kts | 277° |
| 2026-05-07 14:33 | 63.94382 | -20.22679 | 17823 ft | 306 kts | 277° |
| 2026-05-07 14:34 | 63.94510 | -20.27503 | 17525 ft | 304 kts | 277° |
| 2026-05-07 14:34 | 63.94634 | -20.32277 | 17201 ft | 303 kts | 277° |
| 2026-05-07 14:34 | 63.94666 | -20.37066 | 16888 ft | 304 kts | 269° |
| 2026-05-07 14:34 | 63.94372 | -20.41817 | 16608 ft | 303 kts | 264° |
| 2026-05-07 14:35 | 63.93987 | -20.46536 | 16283 ft | 303 kts | 263° |
| 2026-05-07 14:35 | 63.93595 | -20.51241 | 15984 ft | 302 kts | 263° |
| 2026-05-07 14:35 | 63.93213 | -20.55949 | 15671 ft | 302 kts | 263° |
| 2026-05-07 14:35 | 63.92849 | -20.60577 | 15372 ft | 301 kts | 264° |
| 2026-05-07 14:36 | 63.92488 | -20.65249 | 15064 ft | 300 kts | 264° |
| 2026-05-07 14:36 | 63.92131 | -20.69941 | 14753 ft | 299 kts | 264° |
| 2026-05-07 14:36 | 63.91778 | -20.74605 | 14448 ft | 299 kts | 264° |
| 2026-05-07 14:36 | 63.91432 | -20.79188 | 14163 ft | 298 kts | 264° |
| 2026-05-07 14:37 | 63.91078 | -20.83875 | 13854 ft | 297 kts | 263° |
| 2026-05-07 14:37 | 63.90382 | -20.93046 | 13212 ft | 295 kts | 264° |
| 2026-05-07 14:37 | 63.90033 | -20.97616 | 12905 ft | 294 kts | 264° |
| 2026-05-07 14:38 | 63.89685 | -21.02182 | 12613 ft | 292 kts | 264° |
| 2026-05-07 14:38 | 63.89336 | -21.06722 | 12309 ft | 291 kts | 264° |
| 2026-05-07 14:38 | 63.88985 | -21.11260 | 12009 ft | 290 kts | 263° |
| 2026-05-07 14:38 | 63.88634 | -21.15760 | 11708 ft | 290 kts | 263° |
| 2026-05-07 14:39 | 63.88287 | -21.20222 | 11394 ft | 290 kts | 264° |
| 2026-05-07 14:39 | 63.87934 | -21.24733 | 11078 ft | 290 kts | 264° |
| 2026-05-07 14:39 | 63.87578 | -21.29296 | 10777 ft | 290 kts | 263° |
| 2026-05-07 14:39 | 63.87223 | -21.33803 | 10472 ft | 289 kts | 263° |
| 2026-05-07 14:40 | 63.86871 | -21.38272 | 10258 ft | 286 kts | 263° |
| 2026-05-07 14:40 | 63.86527 | -21.42612 | 10034 ft | 283 kts | 263° |
| 2026-05-07 14:40 | 63.86176 | -21.47014 | 9726 ft | 283 kts | 263° |
| 2026-05-07 14:40 | 63.85825 | -21.51401 | 9418 ft | 283 kts | 263° |
| 2026-05-07 14:41 | 63.85475 | -21.55787 | 9108 ft | 282 kts | 262° |
| 2026-05-07 14:41 | 63.85123 | -21.60150 | 8825 ft | 281 kts | 262° |
| 2026-05-07 14:41 | 63.84774 | -21.64450 | 8539 ft | 280 kts | 262° |
| 2026-05-07 14:41 | 63.84417 | -21.68840 | 8257 ft | 279 kts | 262° |
| 2026-05-07 14:42 | 63.84064 | -21.73159 | 7972 ft | 279 kts | 262° |
| 2026-05-07 14:42 | 63.83710 | -21.77476 | 7696 ft | 278 kts | 262° |
| 2026-05-07 14:42 | 63.83354 | -21.81790 | 7415 ft | 278 kts | 262° |
| 2026-05-07 14:42 | 63.82999 | -21.86089 | 7130 ft | 278 kts | 262° |
| 2026-05-07 14:43 | 63.82648 | -21.90331 | 6858 ft | 277 kts | 262° |
| 2026-05-07 14:43 | 63.82290 | -21.94651 | 6430 ft | 279 kts | 262° |
| 2026-05-07 14:43 | 63.81934 | -21.98914 | 6116 ft | 272 kts | 261° |
| 2026-05-07 14:43 | 63.81585 | -22.03062 | 5805 ft | 264 kts | 262° |
| 2026-05-07 14:44 | 63.81246 | -22.07077 | 5569 ft | 256 kts | 262° |
| 2026-05-07 14:44 | 63.80896 | -22.11004 | 5314 ft | 256 kts | 258° |
| 2026-05-07 14:44 | 63.80339 | -22.14890 | 5070 ft | 261 kts | 252° |
| 2026-05-07 14:44 | 63.79722 | -22.18739 | 4791 ft | 257 kts | 252° |
| 2026-05-07 14:45 | 63.79140 | -22.22435 | 4527 ft | 239 kts | 253° |
| 2026-05-07 14:45 | 63.78609 | -22.25864 | 4299 ft | 224 kts | 253° |
| 2026-05-07 14:45 | 63.78117 | -22.29075 | 4106 ft | 209 kts | 254° |
| 2026-05-07 14:45 | 63.77656 | -22.32088 | 4053 ft | 199 kts | 254° |
| 2026-05-07 14:46 | 63.77218 | -22.34964 | 3979 ft | 193 kts | 254° |
| 2026-05-07 14:46 | 63.76960 | -22.37907 | 3853 ft | 191 kts | 281° |
| 2026-05-07 14:46 | 63.77563 | -22.40278 | 3837 ft | 165 kts | 320° |
| 2026-05-07 14:46 | 63.78312 | -22.42161 | 3719 ft | 158 kts | 314° |
| 2026-05-07 14:47 | 63.79003 | -22.44077 | 3670 ft | 157 kts | 315° |
| 2026-05-07 14:47 | 63.79691 | -22.45972 | 3605 ft | 156 kts | 315° |
| 2026-05-07 14:47 | 63.80408 | -22.47930 | 3108 ft | 165 kts | 314° |
| 2026-05-07 14:47 | 63.81119 | -22.49884 | 2559 ft | 159 kts | 314° |
| 2026-05-07 14:48 | 63.81817 | -22.51796 | 2042 ft | 155 kts | 315° |
| 2026-05-07 14:48 | 63.82486 | -22.53628 | 1906 ft | 151 kts | 314° |
| 2026-05-07 14:48 | 63.83156 | -22.55461 | 1841 ft | 149 kts | 314° |
| 2026-05-07 14:48 | 63.83819 | -22.57273 | 1846 ft | 150 kts | 314° |
| 2026-05-07 14:49 | 63.84487 | -22.59102 | 1839 ft | 150 kts | 315° |
| 2026-05-07 14:49 | 63.85237 | -22.60475 | 1822 ft | 125 kts | 350° |
| 2026-05-07 14:49 | 63.86040 | -22.60310 | 1841 ft | 113 kts | 14° |
| 2026-05-07 14:49 | 63.86555 | -22.60226 | 1830 ft | 113 kts | 357° |
| 2026-05-07 14:50 | 63.87609 | -22.60617 | 1838 ft | 113 kts | 7° |
| 2026-05-07 14:50 | 63.88129 | -22.60500 | 1845 ft | 115 kts | 6° |
| 2026-05-07 14:50 | 63.88944 | -22.60521 | 1745 ft | 117 kts | 2° |
| 2026-05-07 14:50 | 63.90010 | -22.60546 | 1531 ft | 113 kts | 4° |
| 2026-05-07 14:51 | 63.90532 | -22.60548 | 1425 ft | 112 kts | 4° |
| 2026-05-07 14:51 | 63.91318 | -22.60548 | 1269 ft | 115 kts | 3° |
| 2026-05-07 14:51 | 63.92118 | -22.60548 | 1091 ft | 115 kts | 3° |
| 2026-05-07 14:51 | 63.93190 | -22.60545 | 874 ft | 113 kts | 3° |
| 2026-05-07 14:52 | 63.93716 | -22.60523 | 660 ft | 116 kts | 4° |
| 2026-05-07 14:52 | 63.94492 | -22.60502 | 518 ft | 109 kts | 1° |
| 2026-05-07 14:52 | 63.95258 | -22.60560 | 393 ft | 114 kts | 0° |
| 2026-05-07 14:52 | 63.96051 | -22.60584 | 239 ft | 114 kts | 2° |
| 2026-05-07 14:53 | 63.96815 | -22.60552 | 151 ft | 102 kts | 4° |
| 2026-05-07 14:53 | 63.97421 | -22.60548 | 146 ft | 65 kts | 360° |
| 2026-05-07 14:53 | 63.97799 | -22.60545 | 147 ft | 49 kts | 1° |
| 2026-05-07 14:53 | 63.98022 | -22.60531 | 148 ft | 43 kts | 0° |